Time;durP1;ratioP1;P1;durP2;ratioP2;P2;SDS_P1;SDS_P2;PMS_P1;PMS_P2;Temp;Humidity;BMP_temperature;BMP_pressure;BME280_temperature;BME280_humidity;BME280_pressure;Samples;Min_cycle;Max_cycle;Signal;HPM_P1;HPM_P2
2021/08/12 00:02:21;;;;;;;15.03;13.50;;;;;;;;;;5032419;28;20812;-73
2021/08/12 00:04:48;;;;;;;14.80;13.07;;;;;;;;;;5032042;28;20439;-71
2021/08/12 00:07:14;;;;;;;13.93;12.63;;;;;;;;;;5031808;28;20471;-72
2021/08/12 00:09:40;;;;;;;15.17;13.57;;;;;;;;;;5034493;28;20955;-70
2021/08/12 00:12:06;;;;;;;13.73;12.37;;;;;;;;;;5032214;28;20968;-72
2021/08/12 00:14:33;;;;;;;14.53;12.20;;;;;;;;;;5031783;28;20436;-72
2021/08/12 00:16:59;;;;;;;14.10;12.70;;;;;;;;;;5031854;28;20456;-70
2021/08/12 00:19:25;;;;;;;13.50;12.10;;;;;;;;;;5031263;28;20420;-72
2021/08/12 00:21:51;;;;;;;12.33;11.13;;;;;;;;;;5031993;28;20420;-71
2021/08/12 00:24:21;;;;;;;13.07;11.77;;;;;;;;;;5031985;28;20451;-72
2021/08/12 00:26:48;;;;;;;12.43;11.13;;;;;;;;;;5031635;28;20424;-74
2021/08/12 00:29:14;;;;;;;12.80;11.60;;;;;;;;;;5031702;28;20952;-72
2021/08/12 00:31:40;;;;;;;13.23;11.93;;;;;;;;;;5031581;28;20499;-73
2021/08/12 00:34:06;;;;;;;14.67;12.70;;;;;;;;;;5031236;28;20468;-72
2021/08/12 00:36:32;;;;;;;13.10;11.60;;;;;;;;;;5033366;28;20480;-72
2021/08/12 00:38:58;;;;;;;12.17;10.97;;;;;;;;;;5035151;28;20417;-73
2021/08/12 00:41:24;;;;;;;13.83;11.00;;;;;;;;;;5035275;28;20835;-74
2021/08/12 00:43:50;;;;;;;11.53;10.40;;;;;;;;;;5035048;28;20436;-73
2021/08/12 00:46:16;;;;;;;12.90;11.50;;;;;;;;;;5035235;28;20758;-73
2021/08/12 00:48:42;;;;;;;13.87;11.87;;;;;;;;;;5034814;28;20421;-74
2021/08/12 00:51:08;;;;;;;12.57;11.30;;;;;;;;;;5034959;28;20471;-71
2021/08/12 00:53:34;;;;;;;11.73;10.50;;;;;;;;;;5034846;28;20494;-72
2021/08/12 00:56:02;;;;;;;12.90;11.60;;;;;;;;;;5035029;28;20454;-72
2021/08/12 00:58:28;;;;;;;13.43;12.03;;;;;;;;;;5034696;28;20551;-72
2021/08/12 01:00:54;;;;;;;12.50;11.40;;;;;;;;;;5034787;28;20419;-72
2021/08/12 01:03:20;;;;;;;15.17;11.57;;;;;;;;;;5047116;28;20408;-70
2021/08/12 01:05:48;;;;;;;13.60;12.30;;;;;;;;;;5033284;28;20932;-73
2021/08/12 01:08:17;;;;;;;12.90;11.60;;;;;;;;;;5036694;28;20436;-72
2021/08/12 01:10:52;;;;;;;12.60;11.40;;;;;;;;;;5034792;28;20444;-71
2021/08/12 01:13:45;;;;;;;13.87;12.50;;;;;;;;;;5034641;28;20419;-72
2021/08/12 01:16:12;;;;;;;13.00;11.80;;;;;;;;;;5033717;28;20404;-71
2021/08/12 01:19:10;;;;;;;13.00;11.90;;;;;;;;;;5034251;28;20440;-71
2021/08/12 01:21:42;;;;;;;13.67;12.40;;;;;;;;;;5022413;28;20432;-73
2021/08/12 01:24:10;;;;;;;13.77;12.57;;;;;;;;;;5032851;28;20466;-70
2021/08/12 01:26:38;;;;;;;14.50;13.00;;;;;;;;;;5034033;28;20813;-72
2021/08/12 01:29:07;;;;;;;12.97;11.73;;;;;;;;;;5034433;28;20911;-74
2021/08/12 01:31:33;;;;;;;13.40;12.20;;;;;;;;;;5034074;28;20975;-71
2021/08/12 01:33:59;;;;;;;13.17;11.43;;;;;;;;;;5034141;28;20428;-71
2021/08/12 01:36:26;;;;;;;13.63;12.10;;;;;;;;;;5034401;28;20914;-71
2021/08/12 01:38:53;;;;;;;14.63;12.77;;;;;;;;;;5033941;28;20417;-71
2021/08/12 01:41:20;;;;;;;14.03;12.63;;;;;;;;;;5034429;28;20416;-73
2021/08/12 01:43:46;;;;;;;14.80;13.30;;;;;;;;;;5034099;28;20467;-73
2021/08/12 01:46:12;;;;;;;14.90;13.40;;;;;;;;;;5033204;28;20412;-71
2021/08/12 01:48:39;;;;;;;14.97;13.57;;;;;;;;;;5033599;28;20424;-72
2021/08/12 01:51:05;;;;;;;14.97;13.47;;;;;;;;;;5033721;28;20460;-73
2021/08/12 01:53:32;;;;;;;15.10;13.70;;;;;;;;;;5034032;28;20466;-74
2021/08/12 01:55:58;;;;;;;14.67;13.27;;;;;;;;;;5033883;28;20400;-72
2021/08/12 01:58:26;;;;;;;15.13;13.60;;;;;;;;;;5033532;28;20882;-71
2021/08/12 02:00:53;;;;;;;14.47;12.87;;;;;;;;;;5033613;28;20405;-70
2021/08/12 02:03:19;;;;;;;15.30;13.70;;;;;;;;;;5034002;28;20762;-72
2021/08/12 02:05:49;;;;;;;25.13;13.60;;;;;;;;;;5033625;28;20439;-74
2021/08/12 02:08:18;;;;;;;17.70;13.83;;;;;;;;;;5035920;28;20417;-74
2021/08/12 02:10:44;;;;;;;15.37;13.93;;;;;;;;;;5033456;28;20401;-72
2021/08/12 02:13:11;;;;;;;14.90;13.40;;;;;;;;;;5033886;28;20889;-73
2021/08/12 02:15:37;;;;;;;16.13;14.43;;;;;;;;;;5033630;28;20881;-71
2021/08/12 02:18:04;;;;;;;15.60;13.90;;;;;;;;;;5033221;28;20747;-71
2021/08/12 02:20:30;;;;;;;15.53;14.13;;;;;;;;;;5033321;28;20893;-72
2021/08/12 02:23:02;;;;;;;15.13;13.57;;;;;;;;;;5033489;28;20794;-72
2021/08/12 02:25:31;;;;;;;15.53;14.07;;;;;;;;;;5033523;28;20928;-72
2021/08/12 02:27:58;;;;;;;15.60;14.00;;;;;;;;;;5033480;28;20445;-71
2021/08/12 02:30:24;;;;;;;14.83;13.50;;;;;;;;;;5033433;28;20454;-72
2021/08/12 02:32:51;;;;;;;15.00;13.60;;;;;;;;;;5033110;28;20512;-73
2021/08/12 02:35:18;;;;;;;13.83;12.63;;;;;;;;;;5033310;28;20446;-74
2021/08/12 02:37:45;;;;;;;14.77;13.27;;;;;;;;;;5033000;28;20420;-73
2021/08/12 02:40:11;;;;;;;13.63;12.33;;;;;;;;;;5033409;28;20842;-73
2021/08/12 02:42:40;;;;;;;13.87;12.70;;;;;;;;;;5033121;28;20551;-73
2021/08/12 02:45:07;;;;;;;14.07;12.80;;;;;;;;;;5033051;28;20473;-72
2021/08/12 02:47:33;;;;;;;15.60;14.10;;;;;;;;;;5031499;28;20420;-74
2021/08/12 02:49:59;;;;;;;13.97;12.67;;;;;;;;;;5033118;28;20530;-73
2021/08/12 02:52:25;;;;;;;13.93;12.63;;;;;;;;;;5032791;28;20464;-72
2021/08/12 02:54:52;;;;;;;14.93;13.37;;;;;;;;;;5033078;28;20443;-71
2021/08/12 02:57:19;;;;;;;14.10;12.70;;;;;;;;;;5032692;28;20412;-74
2021/08/12 02:59:45;;;;;;;13.60;12.20;;;;;;;;;;5032922;28;20420;-72
2021/08/12 03:02:12;;;;;;;13.13;11.73;;;;;;;;;;5032969;28;20758;-72
2021/08/12 03:04:38;;;;;;;13.07;11.97;;;;;;;;;;5033063;28;20757;-72
2021/08/12 03:07:05;;;;;;;13.03;11.93;;;;;;;;;;5032285;28;20438;-73
2021/08/12 03:09:31;;;;;;;13.57;12.37;;;;;;;;;;5032879;28;20412;-71
2021/08/12 03:11:59;;;;;;;13.20;11.97;;;;;;;;;;5032771;28;20463;-71
2021/08/12 03:14:26;;;;;;;13.27;11.97;;;;;;;;;;5032893;28;20936;-73
2021/08/12 03:16:52;;;;;;;12.47;11.27;;;;;;;;;;5032250;28;20916;-71
2021/08/12 03:19:18;;;;;;;12.47;11.37;;;;;;;;;;5032617;28;20423;-71
2021/08/12 03:22:01;;;;;;;13.70;12.30;;;;;;;;;;5032658;28;20758;-71
2021/08/12 03:24:27;;;;;;;13.30;12.03;;;;;;;;;;5032612;28;20835;-70
2021/08/12 03:26:54;;;;;;;15.17;12.63;;;;;;;;;;5030935;28;20447;-73
2021/08/12 03:29:20;;;;;;;11.87;10.57;;;;;;;;;;5032495;28;20415;-73
2021/08/12 03:31:46;;;;;;;13.40;12.10;;;;;;;;;;5032296;28;20455;-73
2021/08/12 03:34:12;;;;;;;12.73;11.43;;;;;;;;;;5032524;28;20519;-73
2021/08/12 03:36:38;;;;;;;12.70;11.40;;;;;;;;;;5032311;28;20443;-71
2021/08/12 03:39:04;;;;;;;12.50;11.43;;;;;;;;;;5032406;28;20423;-74
2021/08/12 03:41:30;;;;;;;14.13;12.73;;;;;;;;;;5032600;28;20777;-71
2021/08/12 03:43:56;;;;;;;12.53;11.43;;;;;;;;;;5031191;28;20475;-73
2021/08/12 03:46:22;;;;;;;13.27;12.07;;;;;;;;;;5032424;28;20464;-70
2021/08/12 03:48:48;;;;;;;12.90;11.60;;;;;;;;;;5032162;28;20420;-69
2021/08/12 03:51:14;;;;;;;13.97;12.73;;;;;;;;;;5032090;28;20467;-73
2021/08/12 03:53:40;;;;;;;12.53;11.23;;;;;;;;;;5032289;28;20439;-71
2021/08/12 03:56:06;;;;;;;12.80;11.57;;;;;;;;;;5032334;28;20404;-74
2021/08/12 03:58:32;;;;;;;12.80;11.50;;;;;;;;;;5031864;28;20419;-73
2021/08/12 04:00:58;;;;;;;12.83;11.53;;;;;;;;;;5032402;28;20415;-72
2021/08/12 04:03:25;;;;;;;12.03;11.03;;;;;;;;;;5032101;28;20420;-71
2021/08/12 04:05:51;;;;;;;12.00;10.90;;;;;;;;;;5032111;28;20789;-72
2021/08/12 04:08:17;;;;;;;12.40;11.00;;;;;;;;;;5035041;28;20839;-71
2021/08/12 04:10:43;;;;;;;11.60;10.40;;;;;;;;;;5035701;28;20762;-71
2021/08/12 04:13:09;;;;;;;12.30;11.20;;;;;;;;;;5035466;28;20478;-71
2021/08/12 04:15:35;;;;;;;12.07;10.97;;;;;;;;;;5035647;28;20436;-71
2021/08/12 04:18:02;;;;;;;13.37;12.17;;;;;;;;;;5035262;28;20438;-72
2021/08/12 04:20:28;;;;;;;11.80;10.70;;;;;;;;;;5035523;28;20458;-71
2021/08/12 04:22:54;;;;;;;12.37;11.17;;;;;;;;;;5035572;28;20453;-72
2021/08/12 04:25:20;;;;;;;11.90;10.80;;;;;;;;;;5035226;28;20435;-71
2021/08/12 04:27:47;;;;;;;12.23;11.13;;;;;;;;;;5035126;28;20431;-73
2021/08/12 04:30:13;;;;;;;12.50;11.30;;;;;;;;;;5035733;28;20422;-72
2021/08/12 04:32:39;;;;;;;12.53;11.10;;;;;;;;;;5035318;28;20521;-71
2021/08/12 04:35:06;;;;;;;12.10;11.00;;;;;;;;;;5035430;28;20451;-71
2021/08/12 04:37:43;;;;;;;12.23;11.13;;;;;;;;;;5034754;28;20416;-72
2021/08/12 04:40:09;;;;;;;12.30;11.20;;;;;;;;;;5035320;28;20510;-73
2021/08/12 04:42:35;;;;;;;14.00;12.20;;;;;;;;;;5035261;28;20412;-72
2021/08/12 04:45:02;;;;;;;13.37;12.07;;;;;;;;;;5035206;28;20436;-71
2021/08/12 04:47:28;;;;;;;12.30;11.10;;;;;;;;;;5034640;28;20416;-72
2021/08/12 04:49:54;;;;;;;12.50;11.30;;;;;;;;;;5034973;28;20420;-70
2021/08/12 04:52:21;;;;;;;11.67;10.57;;;;;;;;;;5034879;28;20825;-74
2021/08/12 04:54:47;;;;;;;12.27;11.10;;;;;;;;;;5035176;28;20442;-73
2021/08/12 04:57:13;;;;;;;12.40;11.20;;;;;;;;;;5034802;28;20762;-72
2021/08/12 04:59:39;;;;;;;11.80;10.80;;;;;;;;;;5035032;28;20419;-73
2021/08/12 05:02:05;;;;;;;12.00;9.80;;;;;;;;;;5035047;28;20416;-71
2021/08/12 05:04:31;;;;;;;11.93;10.73;;;;;;;;;;5034927;28;20810;-74
2021/08/12 05:06:57;;;;;;;11.30;10.20;;;;;;;;;;5034453;28;20931;-72
2021/08/12 05:09:23;;;;;;;11.33;10.33;;;;;;;;;;5037115;28;20436;-74
2021/08/12 05:11:49;;;;;;;12.47;11.07;;;;;;;;;;5034716;28;20460;-71
2021/08/12 05:14:15;;;;;;;11.80;10.80;;;;;;;;;;5034419;28;20441;-74
2021/08/12 05:16:41;;;;;;;11.60;10.60;;;;;;;;;;5034452;28;20437;-72
2021/08/12 05:19:07;;;;;;;12.40;10.73;;;;;;;;;;5034258;28;20408;-72
2021/08/12 05:21:33;;;;;;;11.30;10.17;;;;;;;;;;5033618;28;20445;-71
2021/08/12 05:23:59;;;;;;;11.10;10.20;;;;;;;;;;5034343;28;20448;-72
2021/08/12 05:26:25;;;;;;;11.30;10.30;;;;;;;;;;5034478;28;20442;-72
2021/08/12 05:28:51;;;;;;;12.63;11.20;;;;;;;;;;5035998;28;20459;-73
2021/08/12 05:31:17;;;;;;;10.60;9.70;;;;;;;;;;5035071;28;20538;-72
2021/08/12 05:33:43;;;;;;;11.80;10.80;;;;;;;;;;5034009;28;20439;-72
2021/08/12 05:36:09;;;;;;;12.00;10.90;;;;;;;;;;5034253;28;20495;-72
2021/08/12 05:38:35;;;;;;;12.00;10.90;;;;;;;;;;5033625;28;20420;-72
2021/08/12 05:41:01;;;;;;;11.63;10.63;;;;;;;;;;5034438;28;20413;-73
2021/08/12 05:43:27;;;;;;;11.83;10.80;;;;;;;;;;5033978;28;20413;-72
2021/08/12 05:45:54;;;;;;;11.23;10.20;;;;;;;;;;5034145;28;20423;-72
2021/08/12 05:48:20;;;;;;;11.70;10.07;;;;;;;;;;5033387;28;20490;-72
2021/08/12 05:50:46;;;;;;;11.60;10.60;;;;;;;;;;5033964;28;20416;-71
2021/08/12 05:53:13;;;;;;;11.67;10.60;;;;;;;;;;5030500;28;20464;-72
2021/08/12 05:55:39;;;;;;;10.70;9.60;;;;;;;;;;5034007;28;20416;-73
2021/08/12 05:58:05;;;;;;;11.50;10.50;;;;;;;;;;5033317;28;20810;-72
2021/08/12 06:00:31;;;;;;;11.40;10.40;;;;;;;;;;5033904;28;20511;-71
2021/08/12 06:03:05;;;;;;;11.93;10.90;;;;;;;;;;5033678;28;20420;-72
2021/08/12 06:05:31;;;;;;;14.40;13.00;;;;;;;;;;5032465;28;20456;-71
2021/08/12 06:07:57;;;;;;;30.30;26.40;;;;;;;;;;5035630;28;20909;-71
2021/08/12 06:10:23;;;;;;;13.30;12.10;;;;;;;;;;5033740;28;20420;-72
2021/08/12 06:12:49;;;;;;;13.60;11.57;;;;;;;;;;5033835;28;20464;-71
2021/08/12 06:15:15;;;;;;;13.67;12.37;;;;;;;;;;5033774;28;20429;-71
2021/08/12 06:17:41;;;;;;;15.77;12.27;;;;;;;;;;5033343;28;20401;-73
2021/08/12 06:20:07;;;;;;;15.97;12.13;;;;;;;;;;5033409;28;20515;-71
2021/08/12 06:22:33;;;;;;;12.60;11.40;;;;;;;;;;5033344;28;20471;-72
2021/08/12 06:24:59;;;;;;;11.60;10.33;;;;;;;;;;5033503;28;20468;-69
2021/08/12 06:27:25;;;;;;;16.57;10.50;;;;;;;;;;5033092;28;20495;-74
2021/08/12 06:29:51;;;;;;;12.23;11.13;;;;;;;;;;5033507;28;20416;-73
2021/08/12 06:32:17;;;;;;;12.37;11.17;;;;;;;;;;5032790;28;20456;-71
2021/08/12 06:34:43;;;;;;;12.50;11.33;;;;;;;;;;5033053;28;20934;-72
2021/08/12 06:37:09;;;;;;;10.80;9.70;;;;;;;;;;5032831;28;20416;-73
2021/08/12 06:39:35;;;;;;;11.10;10.10;;;;;;;;;;5033449;28;20417;-72
2021/08/12 06:42:01;;;;;;;11.40;9.40;;;;;;;;;;5033158;28;20420;-71
2021/08/12 06:44:27;;;;;;;9.27;8.50;;;;;;;;;;5032874;28;20432;-72
2021/08/12 06:46:53;;;;;;;9.80;8.90;;;;;;;;;;5032526;28;20928;-71
2021/08/12 06:49:19;;;;;;;10.87;9.00;;;;;;;;;;5033166;28;20416;-72
2021/08/12 06:51:45;;;;;;;11.30;10.30;;;;;;;;;;5032964;28;21042;-73
2021/08/12 06:54:13;;;;;;;10.27;9.27;;;;;;;;;;5032870;28;20515;-74
2021/08/12 06:56:39;;;;;;;9.87;8.63;;;;;;;;;;5032629;28;20413;-72
2021/08/12 06:59:05;;;;;;;9.97;9.13;;;;;;;;;;5032922;28;20431;-71
2021/08/12 07:01:31;;;;;;;10.07;9.10;;;;;;;;;;5032713;28;20817;-72
2021/08/12 07:03:58;;;;;;;8.93;8.13;;;;;;;;;;5033242;28;20924;-73
2021/08/12 07:06:25;;;;;;;9.53;8.73;;;;;;;;;;5032584;28;20572;-73
2021/08/12 07:08:54;;;;;;;9.53;8.73;;;;;;;;;;5034939;28;20428;-74
2021/08/12 07:11:21;;;;;;;10.23;9.20;;;;;;;;;;5032617;28;20464;-73
2021/08/12 07:13:49;;;;;;;9.93;9.17;;;;;;;;;;5032750;28;20432;-72
2021/08/12 07:16:15;;;;;;;10.47;9.57;;;;;;;;;;5031548;28;20454;-72
2021/08/12 07:18:41;;;;;;;9.27;8.40;;;;;;;;;;5032475;28;20773;-71
2021/08/12 07:21:14;;;;;;;9.57;8.67;;;;;;;;;;5032551;28;20420;-70
2021/08/12 07:23:40;;;;;;;8.13;7.33;;;;;;;;;;5032531;28;20433;-72
2021/08/12 07:26:09;;;;;;;8.53;7.80;;;;;;;;;;5032682;28;20412;-72
2021/08/12 07:28:35;;;;;;;8.37;7.67;;;;;;;;;;5032370;28;20905;-72
2021/08/12 07:31:01;;;;;;;8.60;7.80;;;;;;;;;;5032380;28;20412;-74
2021/08/12 07:33:27;;;;;;;8.00;7.30;;;;;;;;;;5032708;28;20408;-72
2021/08/12 07:35:53;;;;;;;7.40;6.70;;;;;;;;;;5032484;28;20403;-72
2021/08/12 07:38:19;;;;;;;8.80;8.03;;;;;;;;;;5032664;28;20936;-73
2021/08/12 07:40:45;;;;;;;12.37;7.73;;;;;;;;;;5032708;28;20435;-73
2021/08/12 07:43:11;;;;;;;8.20;7.40;;;;;;;;;;5033025;28;20759;-73
2021/08/12 07:45:37;;;;;;;8.73;6.47;;;;;;;;;;5036271;28;20519;-71
2021/08/12 07:48:03;;;;;;;8.23;7.40;;;;;;;;;;5036115;28;20813;-72
2021/08/12 07:50:29;;;;;;;12.57;6.77;;;;;;;;;;5036381;28;20416;-73
2021/08/12 07:52:56;;;;;;;7.60;6.80;;;;;;;;;;5035925;28;20470;-71
2021/08/12 07:55:22;;;;;;;8.00;7.20;;;;;;;;;;5036155;28;20531;-73
2021/08/12 07:57:50;;;;;;;8.37;7.57;;;;;;;;;;5035649;28;20455;-71
2021/08/12 08:00:16;;;;;;;8.20;7.40;;;;;;;;;;5033585;28;20523;-71
2021/08/12 08:02:43;;;;;;;8.60;7.80;;;;;;;;;;5036080;28;20416;-73
2021/08/12 08:05:09;;;;;;;7.90;7.30;;;;;;;;;;5035515;28;20435;-71
2021/08/12 08:07:36;;;;;;;8.40;7.70;;;;;;;;;;5026059;28;20983;-69
2021/08/12 08:10:02;;;;;;;7.90;7.30;;;;;;;;;;5024805;28;20435;-73
2021/08/12 08:12:28;;;;;;;7.63;7.00;;;;;;;;;;5031987;28;20486;-71
2021/08/12 08:14:54;;;;;;;8.17;7.47;;;;;;;;;;5018998;28;20432;-73
2021/08/12 08:17:20;;;;;;;8.60;7.80;;;;;;;;;;5031860;28;20466;-73
2021/08/12 08:19:46;;;;;;;8.10;7.40;;;;;;;;;;5031957;28;20435;-72
2021/08/12 08:22:12;;;;;;;8.37;7.57;;;;;;;;;;5032088;28;20413;-73
2021/08/12 08:24:38;;;;;;;9.50;7.97;;;;;;;;;;5031778;28;20848;-71
2021/08/12 08:27:04;;;;;;;7.67;6.87;;;;;;;;;;5030216;28;20444;-71
2021/08/12 08:29:30;;;;;;;7.50;6.80;;;;;;;;;;5031792;28;20521;-70
2021/08/12 08:31:56;;;;;;;7.33;6.63;;;;;;;;;;5031608;28;20464;-71
2021/08/12 08:34:22;;;;;;;7.83;7.13;;;;;;;;;;5036363;28;20958;-72
2021/08/12 08:36:48;;;;;;;7.63;6.93;;;;;;;;;;5039768;28;20463;-71
2021/08/12 08:39:14;;;;;;;8.60;7.80;;;;;;;;;;5031418;28;20439;-72
2021/08/12 08:41:40;;;;;;;7.47;6.23;;;;;;;;;;5031796;28;20428;-74
2021/08/12 08:44:10;;;;;;;8.30;7.60;;;;;;;;;;5031684;28;20460;-70
2021/08/12 08:46:37;;;;;;;8.00;6.37;;;;;;;;;;5031494;28;21042;-73
2021/08/12 08:49:05;;;;;;;7.97;7.27;;;;;;;;;;5031299;28;20474;-70
2021/08/12 08:51:34;;;;;;;8.10;7.40;;;;;;;;;;5031357;28;20453;-74
2021/08/12 08:54:01;;;;;;;7.77;7.00;;;;;;;;;;5031187;28;20465;-72
2021/08/12 08:56:27;;;;;;;7.13;6.43;;;;;;;;;;5031454;28;20412;-73
2021/08/12 08:58:53;;;;;;;8.10;7.30;;;;;;;;;;5031078;28;20416;-73
2021/08/12 09:01:19;;;;;;;7.93;7.23;;;;;;;;;;5031179;28;20423;-73
2021/08/12 09:03:45;;;;;;;7.23;6.73;;;;;;;;;;5031242;28;20428;-72
2021/08/12 09:06:13;;;;;;;8.00;7.17;;;;;;;;;;5029640;28;20537;-73
2021/08/12 09:08:39;;;;;;;7.30;6.70;;;;;;;;;;5033344;28;20435;-72
2021/08/12 09:11:05;;;;;;;8.20;7.40;;;;;;;;;;5030795;28;20420;-72
2021/08/12 09:13:31;;;;;;;6.83;6.33;;;;;;;;;;5031199;28;20420;-72
2021/08/12 09:15:57;;;;;;;7.17;6.60;;;;;;;;;;5030908;28;20909;-71
2021/08/12 09:18:25;;;;;;;6.80;6.20;;;;;;;;;;5030540;28;20420;-72
2021/08/12 09:20:52;;;;;;;6.40;5.83;;;;;;;;;;5029490;28;20475;-72
2021/08/12 09:23:22;;;;;;;6.90;6.40;;;;;;;;;;5030618;28;20434;-72
2021/08/12 09:25:50;;;;;;;6.90;6.27;;;;;;;;;;5030779;28;20909;-74
2021/08/12 09:28:17;;;;;;;8.60;6.37;;;;;;;;;;5030645;28;20429;-71
2021/08/12 09:31:03;;;;;;;6.70;6.10;;;;;;;;;;5030921;28;20445;-70
2021/08/12 09:33:33;;;;;;;6.97;6.37;;;;;;;;;;5024931;28;20409;-71
2021/08/12 09:36:00;;;;;;;8.90;8.03;;;;;;;;;;5029309;28;20466;-71
2021/08/12 09:38:26;;;;;;;7.93;7.10;;;;;;;;;;5030883;28;21234;-71
2021/08/12 09:40:56;;;;;;;6.93;6.43;;;;;;;;;;5030592;28;20423;-72
2021/08/12 09:43:23;;;;;;;8.77;6.93;;;;;;;;;;5030533;28;20424;-73
2021/08/12 09:45:49;;;;;;;6.63;6.03;;;;;;;;;;5030495;28;21051;-72
2021/08/12 09:48:16;;;;;;;6.73;6.13;;;;;;;;;;5029974;28;20507;-71
2021/08/12 09:50:43;;;;;;;6.83;6.33;;;;;;;;;;5030354;28;20870;-74
2021/08/12 09:53:17;;;;;;;7.33;6.70;;;;;;;;;;5030200;28;20549;-71
2021/08/12 09:55:43;;;;;;;6.37;5.77;;;;;;;;;;5020142;28;20486;-71
2021/08/12 09:58:10;;;;;;;6.50;5.97;;;;;;;;;;5030051;28;20408;-73
2021/08/12 10:00:41;;;;;;;8.20;7.57;;;;;;;;;;5030350;28;20781;-72
2021/08/12 10:03:26;;;;;;;6.43;5.83;;;;;;;;;;5026824;28;20470;-70
2021/08/12 10:05:53;;;;;;;5.70;5.30;;;;;;;;;;5029576;28;20486;-72
2021/08/12 10:08:29;;;;;;;6.60;6.10;;;;;;;;;;5030738;28;20921;-71
2021/08/12 10:10:57;;;;;;;6.13;5.70;;;;;;;;;;5029958;28;20412;-72
2021/08/12 10:13:23;;;;;;;6.03;5.63;;;;;;;;;;5029706;28;20472;-73
2021/08/12 10:15:49;;;;;;;6.27;5.87;;;;;;;;;;5028737;28;20428;-73
2021/08/12 10:18:18;;;;;;;7.13;6.60;;;;;;;;;;5029670;28;20785;-73
2021/08/12 10:20:44;;;;;;;6.10;5.70;;;;;;;;;;5028459;28;20428;-72
2021/08/12 10:23:10;;;;;;;6.10;5.70;;;;;;;;;;5029789;28;20424;-70
2021/08/12 10:25:37;;;;;;;5.77;5.37;;;;;;;;;;5029706;28;20482;-71
2021/08/12 10:28:05;;;;;;;5.80;5.40;;;;;;;;;;5029483;28;20915;-71
2021/08/12 10:30:31;;;;;;;6.20;5.80;;;;;;;;;;5029635;28;20777;-70
2021/08/12 10:32:58;;;;;;;6.53;5.93;;;;;;;;;;5029627;28;20467;-73
2021/08/12 10:35:26;;;;;;;6.10;5.50;;;;;;;;;;5029554;28;20440;-71
2021/08/12 10:37:55;;;;;;;7.10;6.60;;;;;;;;;;5029390;28;20921;-72
2021/08/12 10:40:26;;;;;;;6.70;6.20;;;;;;;;;;5028101;28;20452;-70
2021/08/12 10:42:53;;;;;;;6.90;6.30;;;;;;;;;;5029744;28;20428;-72
2021/08/12 10:45:23;;;;;;;6.60;6.10;;;;;;;;;;5029363;28;20436;-72
2021/08/12 10:47:56;;;;;;;6.53;5.93;;;;;;;;;;5029248;28;20507;-70
2021/08/12 10:50:29;;;;;;;7.03;6.53;;;;;;;;;;5029655;28;20444;-71
2021/08/12 10:53:01;;;;;;;7.00;6.43;;;;;;;;;;5029437;28;20467;-71
2021/08/12 10:55:27;;;;;;;7.43;6.83;;;;;;;;;;5029456;28;20884;-74
2021/08/12 10:58:12;;;;;;;7.40;6.80;;;;;;;;;;5029064;28;20448;-70
2021/08/12 11:00:50;;;;;;;7.27;6.67;;;;;;;;;;5020816;28;20435;-75
2021/08/12 11:03:32;;;;;;;6.60;6.10;;;;;;;;;;5028087;28;20455;-71
2021/08/12 11:06:11;;;;;;;6.70;6.20;;;;;;;;;;5029257;28;20464;-74
2021/08/12 11:08:56;;;;;;;7.80;6.13;;;;;;;;;;5018901;28;20416;-73
2021/08/12 11:11:25;;;;;;;7.60;6.90;;;;;;;;;;5029091;28;20400;-71
2021/08/12 11:13:59;;;;;;;6.63;6.03;;;;;;;;;;5029082;28;20451;-72
2021/08/12 11:16:28;;;;;;;6.50;5.90;;;;;;;;;;5027785;28;20428;-74
2021/08/12 11:18:58;;;;;;;6.77;6.17;;;;;;;;;;5030457;28;20459;-73
2021/08/12 11:21:31;;;;;;;7.30;6.60;;;;;;;;;;5033152;28;20478;-73
2021/08/12 11:23:57;;;;;;;7.07;6.47;;;;;;;;;;5032947;28;20955;-72
2021/08/12 11:26:24;;;;;;;6.90;6.30;;;;;;;;;;5022453;28;20870;-73
2021/08/12 11:28:51;;;;;;;6.50;6.00;;;;;;;;;;5032591;28;20408;-74
2021/08/12 11:31:27;;;;;;;6.90;6.30;;;;;;;;;;5032774;28;20901;-72
2021/08/12 11:34:13;;;;;;;6.63;6.13;;;;;;;;;;5032745;28;20452;-70
2021/08/12 11:36:59;;;;;;;6.80;6.30;;;;;;;;;;5031241;28;21010;-73
2021/08/12 11:39:25;;;;;;;6.60;6.00;;;;;;;;;;5022903;28;20447;-71
2021/08/12 11:41:51;;;;;;;7.00;6.07;;;;;;;;;;5032807;28;21234;-71
2021/08/12 11:44:17;;;;;;;7.43;6.83;;;;;;;;;;5032684;28;20436;-70
2021/08/12 11:46:44;;;;;;;7.60;7.10;;;;;;;;;;5032352;28;20416;-70
2021/08/12 11:49:14;;;;;;;6.97;6.47;;;;;;;;;;5032606;28;20447;-71
2021/08/12 11:51:40;;;;;;;6.53;5.93;;;;;;;;;;5032746;28;21201;-72
2021/08/12 11:54:09;;;;;;;5.90;5.50;;;;;;;;;;5032896;28;20793;-73
2021/08/12 11:56:37;;;;;;;6.27;5.70;;;;;;;;;;5032275;28;20423;-73
2021/08/12 11:59:03;;;;;;;5.60;5.20;;;;;;;;;;5032451;28;20415;-70
2021/08/12 12:01:33;;;;;;;6.60;6.10;;;;;;;;;;5032316;28;20459;-71
2021/08/12 12:04:00;;;;;;;5.50;5.10;;;;;;;;;;5032392;28;20955;-71
2021/08/12 12:06:32;;;;;;;6.50;5.33;;;;;;;;;;5032306;28;20440;-70
2021/08/12 12:08:59;;;;;;;5.90;5.50;;;;;;;;;;5034430;28;20473;-71
2021/08/12 12:11:25;;;;;;;5.60;5.20;;;;;;;;;;5032058;28;20974;-72
2021/08/12 12:13:51;;;;;;;6.10;5.60;;;;;;;;;;5032251;28;20774;-71
2021/08/12 12:16:19;;;;;;;5.90;5.50;;;;;;;;;;5032031;28;20440;-70
2021/08/12 12:18:45;;;;;;;5.20;4.87;;;;;;;;;;5031744;28;20985;-70
2021/08/12 12:21:13;;;;;;;5.83;5.43;;;;;;;;;;5031925;28;20436;-73
2021/08/12 12:23:46;;;;;;;5.50;5.10;;;;;;;;;;5031993;28;20441;-72
2021/08/12 12:26:20;;;;;;;5.47;5.07;;;;;;;;;;5032055;28;20428;-71
2021/08/12 12:28:49;;;;;;;5.67;5.20;;;;;;;;;;5031010;28;20404;-69
2021/08/12 12:31:16;;;;;;;8.20;7.60;;;;;;;;;;5031673;28;20475;-72
2021/08/12 12:33:42;;;;;;;5.57;4.83;;;;;;;;;;5031637;28;20433;-70
2021/08/12 12:36:08;;;;;;;5.27;4.80;;;;;;;;;;5032037;28;20416;-71
2021/08/12 12:38:35;;;;;;;5.43;5.03;;;;;;;;;;5031370;28;20419;-69
2021/08/12 12:41:09;;;;;;;5.77;5.37;;;;;;;;;;5031841;28;20520;-70
2021/08/12 12:43:35;;;;;;;5.47;5.10;;;;;;;;;;5031409;28;20757;-68
2021/08/12 12:46:01;;;;;;;5.60;5.20;;;;;;;;;;5031696;28;20943;-71
2021/08/12 12:48:35;;;;;;;5.03;4.73;;;;;;;;;;5031071;28;20543;-70
2021/08/12 12:51:02;;;;;;;5.70;5.20;;;;;;;;;;5031500;28;20952;-71
2021/08/12 12:53:34;;;;;;;5.30;4.90;;;;;;;;;;5031219;28;20527;-70
2021/08/12 12:56:02;;;;;;;5.30;5.00;;;;;;;;;;5031903;28;20408;-70
2021/08/12 12:58:34;;;;;;;5.43;4.93;;;;;;;;;;5030935;28;20996;-72
2021/08/12 13:01:08;;;;;;;5.87;5.47;;;;;;;;;;5031254;28;20412;-71
2021/08/12 13:03:36;;;;;;;5.57;5.07;;;;;;;;;;5031040;28;20508;-71
2021/08/12 13:06:03;;;;;;;5.50;5.10;;;;;;;;;;5031163;28;20523;-70
2021/08/12 13:08:35;;;;;;;6.23;5.83;;;;;;;;;;5029146;28;20468;-72
2021/08/12 13:11:20;;;;;;;6.10;5.67;;;;;;;;;;5030969;28;20413;-72
2021/08/12 13:13:49;;;;;;;6.40;5.80;;;;;;;;;;5031188;28;20840;-71
2021/08/12 13:16:16;;;;;;;5.30;4.90;;;;;;;;;;5030985;28;20413;-70
2021/08/12 13:19:09;;;;;;;6.27;5.80;;;;;;;;;;5030558;28;20550;-71
2021/08/12 13:21:35;;;;;;;5.90;5.47;;;;;;;;;;5015179;28;20751;-70
2021/08/12 13:24:03;;;;;;;5.93;5.43;;;;;;;;;;5031001;28;20467;-73
2021/08/12 13:26:30;;;;;;;5.13;4.73;;;;;;;;;;5031145;28;20412;-74
2021/08/12 13:29:13;;;;;;;5.40;5.00;;;;;;;;;;5030513;28;20829;-70
2021/08/12 13:31:42;;;;;;;4.60;4.30;;;;;;;;;;5030855;28;21011;-72
2021/08/12 13:34:09;;;;;;;4.60;4.20;;;;;;;;;;5030561;28;20791;-73
2021/08/12 13:36:35;;;;;;;4.63;4.23;;;;;;;;;;5030383;28;20897;-73
2021/08/12 13:39:01;;;;;;;5.17;4.77;;;;;;;;;;5030511;28;20555;-74
2021/08/12 13:41:28;;;;;;;5.17;4.67;;;;;;;;;;5029827;28;20769;-71
2021/08/12 13:43:54;;;;;;;5.20;4.70;;;;;;;;;;5030461;28;21272;-71
2021/08/12 13:46:20;;;;;;;5.30;4.90;;;;;;;;;;5030754;28;20416;-73
2021/08/12 13:48:46;;;;;;;4.80;4.40;;;;;;;;;;5030124;28;20401;-73
2021/08/12 13:51:12;;;;;;;7.63;4.47;;;;;;;;;;5030426;28;20416;-70
2021/08/12 13:53:38;;;;;;;5.00;4.60;;;;;;;;;;5030262;28;20547;-69
2021/08/12 13:56:06;;;;;;;6.53;4.90;;;;;;;;;;5030306;28;20523;-73
2021/08/12 13:58:32;;;;;;;4.90;4.50;;;;;;;;;;5028151;28;20507;-73
2021/08/12 14:00:58;;;;;;;4.83;4.43;;;;;;;;;;5030332;28;20785;-70
2021/08/12 14:03:24;;;;;;;6.30;5.23;;;;;;;;;;5029896;28;20408;-71
2021/08/12 14:05:50;;;;;;;5.37;4.97;;;;;;;;;;5030001;28;20459;-71
2021/08/12 14:08:16;;;;;;;4.73;4.27;;;;;;;;;;5029634;28;20421;-72
2021/08/12 14:10:43;;;;;;;5.30;4.90;;;;;;;;;;5030016;28;20412;-72
2021/08/12 14:13:09;;;;;;;5.70;5.20;;;;;;;;;;5029985;28;20468;-70
2021/08/12 14:15:37;;;;;;;5.13;4.73;;;;;;;;;;5029436;28;20443;-71
2021/08/12 14:18:03;;;;;;;5.50;5.10;;;;;;;;;;5029497;28;20882;-69
2021/08/12 14:20:29;;;;;;;5.03;4.63;;;;;;;;;;5029814;28;21068;-70
2021/08/12 14:22:55;;;;;;;4.93;4.53;;;;;;;;;;5029942;28;20427;-74
2021/08/12 14:25:21;;;;;;;5.50;5.10;;;;;;;;;;5029661;28;20561;-74
2021/08/12 14:27:47;;;;;;;5.10;4.70;;;;;;;;;;5045311;28;20837;-75
2021/08/12 14:30:14;;;;;;;5.07;4.63;;;;;;;;;;5032635;28;20427;-72
2021/08/12 14:32:40;;;;;;;5.40;5.00;;;;;;;;;;5029588;28;20504;-74
2021/08/12 14:35:06;;;;;;;5.40;4.90;;;;;;;;;;5031153;28;20435;-74